createdAt,value
2023-02-14T00:01:58.477Z,91.94
2023-02-14T00:04:25.257Z,91.66
2023-02-14T00:06:51.867Z,91.35
2023-02-14T00:09:19.768Z,91.66
2023-02-14T00:11:46.303Z,91.42
2023-02-14T00:14:31.642Z,90.72
2023-02-14T00:16:58.372Z,91.65
2023-02-14T00:19:24.963Z,90.80
2023-02-14T00:21:51.755Z,91.72
2023-02-14T00:24:23.914Z,92.00
2023-02-14T00:26:51.302Z,93.04
2023-02-14T00:29:20.905Z,92.24
2023-02-14T00:31:47.449Z,92.39
2023-02-14T00:34:16.375Z,93.34
2023-02-14T00:36:43.493Z,93.52
2023-02-14T00:39:13.427Z,93.75
2023-02-14T00:41:40.975Z,93.38
2023-02-14T00:44:10.144Z,94.32
2023-02-14T00:46:37.001Z,93.95
2023-02-14T00:49:04.277Z,94.87
2023-02-14T00:51:31.219Z,95.81
2023-02-14T00:53:57.906Z,95.66
2023-02-14T00:56:24.463Z,95.57
2023-02-14T00:58:51.013Z,95.38
2023-02-14T01:01:18.670Z,96.06
2023-02-14T01:03:45.222Z,96.44
2023-02-14T01:06:11.746Z,96.79
2023-02-14T01:08:38.412Z,96.15
2023-02-14T01:11:17.017Z,96.79
2023-02-14T01:13:44.239Z,96.55
2023-02-14T01:16:15.569Z,96.04
2023-02-14T01:18:43.272Z,96.29
2023-02-14T01:21:11.891Z,96.49
2023-02-14T01:23:38.417Z,96.14
2023-02-14T01:26:06.824Z,96.66
2023-02-14T01:28:33.880Z,96.57
2023-02-14T01:31:09.306Z,96.12
2023-02-14T01:33:36.279Z,96.90
2023-02-14T01:36:03.059Z,97.32
2023-02-14T01:38:29.810Z,97.49
2023-02-14T01:40:57.064Z,97.71
2023-02-14T01:43:23.744Z,97.84
2023-02-14T01:45:50.316Z,99.18
2023-02-14T01:48:21.036Z,98.76
2023-02-14T01:50:49.577Z,98.86
2023-02-14T01:53:23.754Z,99.48
2023-02-14T01:55:59.233Z,98.67
2023-02-14T01:58:31.971Z,98.57
2023-02-14T02:00:59.174Z,99.85
2023-02-14T02:03:39.936Z,99.92
2023-02-14T02:06:26.356Z,100.00
2023-02-14T02:09:04.949Z,100.00
2023-02-14T02:11:31.603Z,100.00
2023-02-14T02:13:58.105Z,100.00
2023-02-14T02:16:33.528Z,100.00
2023-02-14T02:19:27.191Z,100.00
2023-02-14T02:22:30.312Z,100.00
2023-02-14T02:25:19.290Z,100.00
2023-02-14T02:28:03.889Z,100.00
2023-02-14T02:31:01.921Z,100.00
2023-02-14T02:33:52.867Z,100.00
2023-02-14T02:36:34.407Z,100.00
2023-02-14T02:39:16.099Z,100.00
2023-02-14T02:42:04.189Z,100.00
2023-02-14T02:44:51.868Z,100.00
2023-02-14T02:47:33.541Z,100.00
2023-02-14T02:50:47.107Z,100.00
2023-02-14T02:53:43.986Z,100.00
2023-02-14T02:56:35.031Z,100.00
2023-02-14T02:59:18.252Z,100.00
2023-02-14T03:02:05.117Z,100.00
2023-02-14T03:04:53.344Z,100.00
2023-02-14T03:07:34.873Z,100.00
2023-02-14T03:10:07.949Z,100.00
2023-02-14T03:12:34.335Z,100.00
2023-02-14T03:15:06.873Z,100.00
2023-02-14T03:17:39.813Z,100.00
2023-02-14T03:20:16.814Z,100.00
2023-02-14T03:23:14.808Z,100.00
2023-02-14T03:26:00.240Z,100.00
2023-02-14T03:28:43.821Z,100.00
2023-02-14T03:31:23.934Z,100.00
2023-02-14T03:34:01.591Z,100.00
2023-02-14T03:36:35.278Z,100.00
2023-02-14T03:39:21.840Z,100.00
2023-02-14T03:41:53.336Z,100.00
2023-02-14T03:44:25.862Z,100.00
2023-02-14T03:47:00.599Z,100.00
2023-02-14T03:49:31.194Z,100.00
2023-02-14T03:52:01.015Z,100.00
2023-02-14T03:54:30.297Z,100.00
2023-02-14T03:57:08.012Z,100.00
2023-02-14T03:59:35.604Z,100.00
2023-02-14T04:02:34.400Z,100.00
2023-02-14T04:05:03.959Z,100.00
2023-02-14T04:07:30.460Z,100.00
2023-02-14T04:09:57.192Z,100.00
2023-02-14T04:12:36.875Z,100.00
2023-02-14T04:15:05.101Z,100.00
2023-02-14T04:17:50.224Z,100.00
2023-02-14T04:20:16.802Z,100.00
2023-02-14T04:22:43.265Z,100.00
2023-02-14T04:25:09.737Z,100.00
2023-02-14T04:27:36.201Z,100.00
2023-02-14T04:30:03.770Z,100.00
2023-02-14T04:32:30.321Z,100.00
2023-02-14T04:34:56.880Z,100.00
2023-02-14T04:37:23.434Z,100.00
2023-02-14T04:39:49.955Z,100.00
2023-02-14T04:42:16.503Z,100.00
2023-02-14T04:44:43.085Z,100.00
2023-02-14T04:47:09.711Z,100.00
2023-02-14T04:49:36.781Z,100.00
2023-02-14T04:52:03.973Z,100.00
2023-02-14T04:54:30.577Z,100.00
2023-02-14T04:56:57.078Z,100.00
2023-02-14T04:59:25.080Z,100.00
2023-02-14T05:01:52.320Z,100.00
2023-02-14T05:04:19.165Z,100.00
2023-02-14T05:06:45.719Z,100.00
2023-02-14T05:09:12.209Z,100.00
2023-02-14T05:11:38.744Z,100.00
2023-02-14T05:14:05.280Z,100.00
2023-02-14T05:16:31.828Z,100.00
2023-02-14T05:18:58.405Z,100.00
2023-02-14T05:21:24.977Z,100.00
2023-02-14T05:23:51.488Z,100.00
2023-02-14T05:26:18.040Z,100.00
2023-02-14T05:28:44.529Z,100.00
2023-02-14T05:31:11.099Z,100.00
2023-02-14T05:33:37.798Z,100.00
2023-02-14T05:36:04.683Z,100.00
2023-02-14T05:38:31.508Z,100.00
2023-02-14T05:40:58.316Z,100.00
2023-02-14T05:43:26.240Z,100.00
2023-02-14T05:45:54.270Z,100.00
2023-02-14T05:48:20.928Z,100.00
2023-02-14T05:50:47.435Z,100.00
2023-02-14T05:53:14.452Z,100.00
2023-02-14T05:55:41.181Z,100.00
2023-02-14T05:58:07.860Z,100.00
2023-02-14T06:00:34.943Z,100.00
2023-02-14T06:03:01.488Z,100.00
2023-02-14T06:05:28.057Z,100.00
2023-02-14T06:07:54.618Z,100.00
2023-02-14T06:10:24.549Z,100.00
2023-02-14T06:12:52.973Z,100.00
2023-02-14T06:15:20.255Z,100.00
2023-02-14T06:17:59.733Z,100.00
2023-02-14T06:20:26.252Z,100.00
2023-02-14T06:22:53.151Z,100.00
2023-02-14T06:25:20.317Z,100.00
2023-02-14T06:27:49.282Z,100.00
2023-02-14T06:30:17.914Z,100.00
2023-02-14T06:32:44.636Z,100.00
2023-02-14T06:35:11.590Z,100.00
2023-02-14T06:37:38.868Z,100.00
2023-02-14T06:40:06.208Z,100.00
2023-02-14T06:42:32.740Z,100.00
2023-02-14T06:44:59.311Z,100.00
2023-02-14T06:47:25.892Z,100.00
2023-02-14T06:49:52.459Z,100.00
2023-02-14T06:52:19.012Z,100.00
2023-02-14T06:54:45.532Z,100.00
2023-02-14T06:57:12.063Z,100.00
2023-02-14T06:59:38.669Z,100.00
2023-02-14T07:02:05.271Z,100.00
2023-02-14T07:04:31.897Z,100.00
2023-02-14T07:06:58.354Z,100.00
2023-02-14T07:09:24.868Z,100.00
2023-02-14T07:11:51.463Z,100.00
2023-02-14T07:14:17.979Z,100.00
2023-02-14T07:16:44.440Z,100.00
2023-02-14T07:19:10.985Z,100.00
2023-02-14T07:21:37.553Z,100.00
2023-02-14T07:24:04.039Z,100.00
2023-02-14T07:26:30.476Z,100.00
2023-02-14T07:28:56.966Z,100.00
2023-02-14T07:31:23.835Z,100.00
2023-02-14T07:33:51.676Z,100.00
2023-02-14T07:36:19.234Z,100.00
2023-02-14T07:38:45.766Z,100.00
2023-02-14T07:41:12.334Z,99.17
2023-02-14T07:43:39.711Z,96.93
2023-02-14T07:46:06.646Z,94.70
2023-02-14T07:48:34.292Z,93.58
2023-02-14T07:51:01.816Z,92.23
2023-02-14T07:53:28.541Z,91.41
2023-02-14T07:55:55.059Z,89.09
2023-02-14T07:58:21.817Z,88.59
2023-02-14T08:00:48.612Z,87.74
2023-02-14T08:03:15.699Z,86.69
2023-02-14T08:05:42.248Z,86.26
2023-02-14T08:08:08.933Z,85.13
2023-02-14T08:10:35.411Z,84.43
2023-02-14T08:13:02.253Z,82.02
2023-02-14T08:15:50.022Z,81.49
2023-02-14T08:18:18.380Z,80.98
2023-02-14T08:20:46.650Z,78.90
2023-02-14T08:23:13.192Z,77.35
2023-02-14T08:25:40.604Z,77.59
2023-02-14T08:28:07.173Z,76.46
2023-02-14T08:30:36.763Z,76.25
2023-02-14T08:33:03.909Z,76.64
2023-02-14T08:35:30.488Z,73.78
2023-02-14T08:37:57.317Z,73.15
2023-02-14T08:40:24.391Z,72.44
2023-02-14T08:42:50.988Z,72.18
2023-02-14T08:45:17.568Z,71.30
2023-02-14T08:47:44.220Z,72.32
2023-02-14T08:50:13.773Z,70.27
2023-02-14T08:52:41.365Z,71.36
2023-02-14T08:55:08.010Z,69.83
2023-02-14T08:57:34.498Z,66.85
2023-02-14T09:00:01.116Z,64.98
2023-02-14T09:02:27.696Z,63.12
2023-02-14T09:04:54.147Z,62.12
2023-02-14T09:07:20.839Z,60.38
2023-02-14T09:09:47.468Z,58.88
2023-02-14T09:12:14.040Z,58.60
2023-02-14T09:14:46.185Z,58.96
2023-02-14T09:17:13.892Z,58.85
2023-02-14T09:19:40.473Z,58.55
2023-02-14T09:22:09.032Z,57.89
2023-02-14T09:24:37.622Z,57.10
2023-02-14T09:27:04.671Z,56.20
2023-02-14T09:29:32.151Z,54.78
2023-02-14T09:32:01.230Z,53.75
2023-02-14T09:34:47.183Z,52.76
2023-02-14T09:37:33.183Z,53.40
2023-02-14T09:39:59.708Z,54.55
2023-02-14T09:42:35.259Z,55.42
2023-02-14T09:45:07.041Z,53.36
2023-02-14T09:47:39.977Z,53.64
2023-02-14T09:50:27.987Z,51.45
2023-02-14T09:53:01.375Z,51.15
2023-02-14T09:55:30.990Z,52.31
2023-02-14T09:58:06.089Z,53.96
2023-02-14T10:00:38.080Z,53.87
2023-02-14T10:03:28.791Z,51.64
2023-02-14T10:06:10.294Z,51.45
2023-02-14T10:09:02.611Z,49.96
2023-02-14T10:11:29.435Z,50.62
2023-02-14T10:14:08.709Z,48.19
2023-02-14T10:16:45.758Z,49.44
2023-02-14T10:19:40.065Z,48.66
2023-02-14T10:22:14.209Z,48.41
2023-02-14T10:24:47.791Z,46.39
2023-02-14T10:27:17.011Z,48.17
2023-02-14T10:29:43.634Z,46.96
2023-02-14T10:32:15.242Z,47.84
2023-02-14T10:34:51.780Z,48.13
2023-02-14T10:37:23.380Z,45.87
2023-02-14T10:39:58.585Z,44.33
2023-02-14T10:42:52.780Z,44.11
2023-02-14T10:45:28.852Z,45.12
2023-02-14T10:48:08.327Z,45.71
2023-02-14T10:50:56.396Z,46.20
2023-02-14T10:53:27.546Z,46.06
2023-02-14T10:56:03.703Z,45.89
2023-02-14T10:58:36.082Z,45.51
2023-02-14T11:01:10.846Z,43.66
2023-02-14T11:03:39.742Z,43.08
2023-02-14T11:06:08.751Z,42.50
2023-02-14T11:08:38.198Z,44.31
2023-02-14T11:11:07.490Z,43.44
2023-02-14T11:13:37.183Z,43.61
2023-02-14T11:16:10.212Z,42.98
2023-02-14T11:18:39.583Z,43.23
2023-02-14T11:21:17.877Z,42.62
2023-02-14T11:23:49.659Z,42.47
2023-02-14T11:26:46.785Z,42.63
2023-02-14T11:29:17.348Z,44.24
2023-02-14T11:31:44.092Z,43.92
2023-02-14T11:34:37.129Z,42.82
2023-02-14T11:37:16.370Z,42.96
2023-02-14T11:39:42.994Z,43.87
2023-02-14T11:42:12.161Z,43.34
2023-02-14T11:44:55.063Z,43.12
2023-02-14T11:47:29.163Z,42.55
2023-02-14T11:50:06.113Z,44.04
2023-02-14T11:52:34.353Z,41.72
2023-02-14T11:55:01.500Z,41.90
2023-02-14T11:57:34.524Z,41.77
2023-02-14T12:00:11.632Z,41.58
2023-02-14T12:02:40.923Z,42.97
2023-02-14T12:05:20.655Z,42.09
2023-02-14T12:07:59.693Z,41.79
2023-02-14T12:10:38.135Z,41.45
2023-02-14T12:13:24.640Z,42.60
2023-02-14T12:15:56.728Z,43.22
2023-02-14T12:18:38.260Z,42.90
2023-02-14T12:21:23.488Z,43.98
2023-02-14T12:24:08.121Z,41.86
2023-02-14T12:26:59.067Z,40.99
2023-02-14T12:29:30.439Z,40.75
2023-02-14T12:32:02.277Z,40.77
2023-02-14T12:34:28.935Z,42.35
2023-02-14T12:37:19.582Z,41.74
2023-02-14T12:40:01.355Z,42.77
2023-02-14T12:43:19.085Z,41.86
2023-02-14T12:45:59.835Z,41.95
2023-02-14T12:48:35.288Z,44.11
2023-02-14T12:51:15.474Z,44.25
2023-02-14T12:54:14.182Z,44.50
2023-02-14T12:56:40.583Z,44.38
2023-02-14T12:59:31.941Z,44.81
2023-02-14T13:02:36.001Z,44.98
2023-02-14T13:05:21.034Z,43.65
2023-02-14T13:08:22.645Z,44.46
2023-02-14T13:10:55.684Z,44.36
2023-02-14T13:13:46.532Z,45.17
2023-02-14T13:16:16.106Z,44.92
2023-02-14T13:19:03.611Z,46.11
2023-02-14T13:21:35.477Z,45.99
2023-02-14T13:24:19.775Z,46.07
2023-02-14T13:26:50.293Z,47.35
2023-02-14T13:29:20.579Z,45.04
2023-02-14T13:31:48.472Z,46.41
2023-02-14T13:34:33.286Z,46.95
2023-02-14T13:37:02.590Z,47.91
2023-02-14T13:39:38.688Z,47.28
2023-02-14T13:42:06.650Z,48.18
2023-02-14T13:44:38.922Z,48.48
2023-02-14T13:47:15.161Z,48.73
2023-02-14T13:49:48.782Z,49.32
2023-02-14T13:52:48.724Z,51.01
2023-02-14T13:55:23.492Z,51.29
2023-02-14T13:58:05.585Z,51.91
2023-02-14T14:00:43.754Z,52.44
2023-02-14T14:03:15.112Z,53.72
2023-02-14T14:05:56.864Z,53.81
2023-02-14T14:08:23.484Z,53.61
2023-02-14T14:10:55.539Z,55.15
2023-02-14T14:13:40.469Z,54.93
2023-02-14T14:16:19.372Z,56.16
2023-02-14T14:18:45.922Z,57.76
2023-02-14T14:21:26.330Z,57.63
2023-02-14T14:24:14.370Z,57.31
2023-02-14T14:26:47.514Z,57.65
2023-02-14T14:29:30.335Z,57.96
2023-02-14T14:31:57.172Z,58.52
2023-02-14T14:34:26.541Z,58.72
2023-02-14T14:37:04.348Z,59.79
2023-02-14T14:39:33.444Z,60.18
2023-02-14T14:42:14.836Z,61.29
2023-02-14T14:44:54.688Z,61.49
2023-02-14T14:47:41.783Z,62.71
2023-02-14T14:50:19.664Z,63.03
2023-02-14T14:52:49.506Z,63.32
2023-02-14T14:55:21.238Z,64.69
2023-02-14T14:57:53.443Z,65.29
2023-02-14T15:00:28.557Z,65.58
2023-02-14T15:03:13.311Z,66.56
2023-02-14T15:05:42.672Z,65.76
2023-02-14T15:08:25.436Z,67.03
2023-02-14T15:11:13.009Z,66.70
2023-02-14T15:13:49.709Z,67.30
2023-02-14T15:16:20.747Z,67.67
2023-02-14T15:18:48.853Z,67.81
2023-02-14T15:21:16.776Z,68.85
2023-02-14T15:23:46.579Z,68.50
2023-02-14T15:26:22.220Z,68.84
2023-02-14T15:28:58.258Z,69.54
2023-02-14T15:31:29.485Z,69.77
2023-02-14T15:33:59.933Z,69.44
2023-02-14T15:36:27.203Z,70.63
2023-02-14T15:38:56.758Z,70.28
2023-02-14T15:41:24.875Z,71.87
2023-02-14T15:43:53.925Z,71.31
2023-02-14T15:46:31.110Z,71.53
2023-02-14T15:49:01.229Z,72.01
2023-02-14T15:51:35.822Z,72.85
2023-02-14T15:54:07.177Z,72.57
2023-02-14T15:56:37.176Z,73.44
2023-02-14T15:59:17.152Z,73.10
2023-02-14T16:01:54.920Z,73.31
2023-02-14T16:04:27.521Z,73.27
2023-02-14T16:07:06.732Z,73.87
2023-02-14T16:09:34.630Z,73.76
2023-02-14T16:12:31.990Z,73.56
2023-02-14T16:15:10.714Z,72.97
2023-02-14T16:17:37.332Z,74.14
2023-02-14T16:20:43.709Z,74.65
2023-02-14T16:23:21.074Z,75.40
2023-02-14T16:25:48.656Z,76.15
2023-02-14T16:28:15.830Z,76.72
2023-02-14T16:30:44.406Z,77.22
2023-02-14T16:33:17.722Z,77.92
2023-02-14T16:35:45.857Z,78.17
2023-02-14T16:38:16.205Z,78.17
2023-02-14T16:40:46.177Z,79.66
2023-02-14T16:43:14.921Z,77.98
2023-02-14T16:45:42.502Z,78.89
2023-02-14T16:48:09.575Z,78.74
2023-02-14T16:50:38.309Z,79.38
2023-02-14T16:53:08.913Z,79.83
2023-02-14T16:55:35.573Z,80.56
2023-02-14T16:58:02.993Z,80.24
2023-02-14T17:00:29.563Z,80.07
2023-02-14T17:03:06.240Z,79.95
2023-02-14T17:05:35.515Z,80.31
2023-02-14T17:08:04.488Z,81.23
2023-02-14T17:10:31.904Z,81.09
2023-02-14T17:12:59.489Z,80.58
2023-02-14T17:15:27.419Z,80.72
2023-02-14T17:18:05.246Z,80.94
2023-02-14T17:20:31.723Z,80.74
2023-02-14T17:22:58.374Z,81.60
2023-02-14T17:25:25.469Z,81.01
2023-02-14T17:27:52.194Z,80.97
2023-02-14T17:30:18.857Z,81.28
2023-02-14T17:32:45.593Z,81.69
2023-02-14T17:35:14.114Z,81.01
2023-02-14T17:37:40.652Z,82.21
2023-02-14T17:40:07.852Z,81.85
2023-02-14T17:42:35.448Z,82.49
2023-02-14T17:45:02.465Z,82.78
2023-02-14T17:47:29.632Z,83.13
2023-02-14T17:49:57.166Z,83.36
2023-02-14T17:52:24.373Z,82.80
2023-02-14T17:54:51.088Z,82.46
2023-02-14T17:57:18.140Z,83.32
2023-02-14T17:59:45.470Z,82.86
2023-02-14T18:02:12.353Z,83.53
2023-02-14T18:04:39.130Z,83.49
2023-02-14T18:07:05.901Z,83.82
2023-02-14T18:09:32.666Z,84.02
2023-02-14T18:11:59.194Z,83.79
2023-02-14T18:14:25.912Z,84.30
2023-02-14T18:16:52.631Z,84.98
2023-02-14T18:19:19.212Z,85.44
2023-02-14T18:21:46.214Z,84.89
2023-02-14T18:24:13.257Z,84.93
2023-02-14T18:26:41.101Z,85.79
2023-02-14T18:29:08.606Z,84.80
2023-02-14T18:31:38.000Z,85.48
2023-02-14T18:34:05.187Z,85.74
2023-02-14T18:36:32.372Z,85.46
2023-02-14T18:38:59.283Z,85.29
2023-02-14T18:41:26.999Z,85.39
2023-02-14T18:43:53.856Z,85.33
2023-02-14T18:46:27.276Z,86.39
2023-02-14T18:48:55.223Z,86.52
2023-02-14T18:51:27.473Z,86.48
2023-02-14T18:53:56.446Z,86.90
2023-02-14T18:56:26.502Z,87.02
2023-02-14T18:58:56.799Z,86.66
2023-02-14T19:01:30.512Z,87.50
2023-02-14T19:03:59.677Z,86.96
2023-02-14T19:06:29.377Z,85.97
2023-02-14T19:08:56.496Z,86.48
2023-02-14T19:11:25.662Z,85.41
2023-02-14T19:13:57.526Z,86.69
2023-02-14T19:16:27.161Z,86.85
2023-02-14T19:18:54.117Z,86.81
2023-02-14T19:21:23.528Z,86.96
2023-02-14T19:23:51.911Z,86.58
2023-02-14T19:26:21.083Z,87.14
2023-02-14T19:28:50.363Z,87.89
2023-02-14T19:31:17.399Z,88.11
2023-02-14T19:33:45.742Z,87.83
2023-02-14T19:36:14.485Z,89.14
2023-02-14T19:38:42.821Z,89.23
2023-02-14T19:41:20.628Z,88.43
2023-02-14T19:43:47.906Z,88.29
2023-02-14T19:46:16.284Z,88.13
2023-02-14T19:48:44.634Z,88.75
2023-02-14T19:51:21.180Z,89.26
2023-02-14T19:53:48.291Z,89.34
2023-02-14T19:56:19.928Z,89.46
2023-02-14T19:58:46.958Z,89.08
2023-02-14T20:01:23.281Z,88.82
2023-02-14T20:03:49.941Z,88.86
2023-02-14T20:06:16.526Z,88.09
2023-02-14T20:08:43.116Z,89.08
2023-02-14T20:11:23.032Z,88.13
2023-02-14T20:13:49.488Z,88.75
2023-02-14T20:16:15.974Z,88.54
2023-02-14T20:18:42.448Z,88.26
2023-02-14T20:21:16.674Z,88.38
2023-02-14T20:23:43.315Z,87.84
2023-02-14T20:26:14.672Z,87.63
2023-02-14T20:28:41.530Z,86.60
2023-02-14T20:31:13.067Z,86.58
2023-02-14T20:33:40.152Z,87.15
2023-02-14T20:36:09.655Z,87.52
2023-02-14T20:38:36.128Z,88.40
2023-02-14T20:41:11.230Z,90.10
2023-02-14T20:43:38.799Z,90.44
2023-02-14T20:46:06.995Z,91.21
2023-02-14T20:48:34.504Z,91.03
2023-02-14T20:51:14.357Z,91.77
2023-02-14T20:53:41.903Z,92.11
2023-02-14T20:56:08.756Z,92.09
2023-02-14T20:58:36.726Z,92.14
2023-02-14T21:01:13.178Z,93.67
2023-02-14T21:03:41.478Z,94.38
2023-02-14T21:06:11.535Z,94.28
2023-02-14T21:08:38.798Z,94.46
2023-02-14T21:11:06.834Z,96.20
2023-02-14T21:13:33.980Z,96.91
2023-02-14T21:16:17.217Z,96.65
2023-02-14T21:18:48.504Z,96.40
2023-02-14T21:21:20.291Z,96.24
2023-02-14T21:23:49.338Z,98.13
2023-02-14T21:26:16.264Z,97.11
2023-02-14T21:28:42.791Z,98.72
2023-02-14T21:31:12.389Z,100.00
2023-02-14T21:33:39.351Z,98.87
2023-02-14T21:36:06.817Z,99.83
2023-02-14T21:38:33.899Z,98.78
2023-02-14T21:41:05.106Z,98.64
2023-02-14T21:43:36.674Z,99.83
2023-02-14T21:46:08.457Z,99.79
2023-02-14T21:48:53.646Z,99.65
2023-02-14T21:51:20.996Z,99.35
2023-02-14T21:53:48.222Z,99.22
2023-02-14T21:56:18.044Z,100.00
2023-02-14T21:58:44.702Z,100.00
2023-02-14T22:01:16.599Z,100.00
2023-02-14T22:03:43.340Z,100.00
2023-02-14T22:06:10.450Z,100.00
2023-02-14T22:08:37.076Z,99.48
2023-02-14T22:11:08.757Z,99.77
2023-02-14T22:13:36.144Z,100.00
2023-02-14T22:16:07.117Z,99.72
2023-02-14T22:18:33.939Z,99.79
2023-02-14T22:21:01.994Z,98.95
2023-02-14T22:23:35.770Z,100.00
2023-02-14T22:26:25.639Z,100.00
2023-02-14T22:28:56.770Z,99.67
2023-02-14T22:31:24.925Z,99.61
2023-02-14T22:33:51.825Z,100.00
2023-02-14T22:36:18.335Z,100.00
2023-02-14T22:38:44.854Z,99.28
2023-02-14T22:41:14.238Z,99.07
2023-02-14T22:43:41.741Z,100.00
2023-02-14T22:46:19.360Z,100.00
2023-02-14T22:48:47.131Z,100.00
2023-02-14T22:51:21.904Z,100.00
2023-02-14T22:53:50.171Z,100.00
2023-02-14T22:56:22.693Z,100.00
2023-02-14T22:58:53.395Z,100.00
2023-02-14T23:01:21.518Z,100.00
2023-02-14T23:03:52.025Z,100.00
2023-02-14T23:06:18.693Z,100.00
2023-02-14T23:08:47.218Z,100.00
2023-02-14T23:11:16.965Z,100.00
2023-02-14T23:14:02.074Z,100.00
2023-02-14T23:16:47.673Z,99.47
2023-02-14T23:19:35.499Z,100.00
2023-02-14T23:22:11.064Z,99.61
2023-02-14T23:24:37.958Z,98.60
2023-02-14T23:27:04.966Z,98.91
2023-02-14T23:29:31.771Z,99.64
2023-02-14T23:31:58.453Z,100.00
2023-02-14T23:34:27.202Z,100.00
2023-02-14T23:36:53.671Z,100.00
2023-02-14T23:39:20.491Z,100.00
2023-02-14T23:41:49.900Z,100.00
2023-02-14T23:44:17.386Z,100.00
2023-02-14T23:46:44.139Z,100.00
2023-02-14T23:49:11.293Z,100.00
2023-02-14T23:51:37.844Z,100.00
2023-02-14T23:54:04.576Z,100.00
2023-02-14T23:56:31.280Z,100.00
2023-02-14T23:58:57.832Z,100.00
